Time;durP1;ratioP1;P1;durP2;ratioP2;P2;SDS_P1;SDS_P2;PMS_P1;PMS_P2;Temp;Humidity;BMP_temperature;BMP_pressure;BME280_temperature;BME280_humidity;BME280_pressure;Samples;Min_cycle;Max_cycle;Signal;HPM_P1;HPM_P2
2021/06/17 00:00:13;;;;;;;23.85;17.50;;;;;;;-145.50;100.00;65435.88;4925209;29;20047;-46
2021/06/17 00:02:40;;;;;;;23.20;18.67;;;;;;;-145.50;100.00;65435.88;4920127;29;20051;-46
2021/06/17 00:05:10;;;;;;;22.40;18.33;;;;;;;-145.50;100.00;65435.88;4918731;29;20147;-45
2021/06/17 00:07:38;;;;;;;21.38;17.67;;;;;;;-145.50;100.00;65435.88;4919480;29;20067;-46
2021/06/17 00:10:13;;;;;;;21.20;17.63;;;;;;;-145.50;100.00;65435.88;4921830;29;20147;-46
2021/06/17 00:12:40;;;;;;;20.88;17.27;;;;;;;-145.50;100.00;65435.88;4915260;29;20098;-46
2021/06/17 00:15:10;;;;;;;21.98;17.88;;;;;;;-145.50;100.00;65435.88;4937273;29;20518;-47
2021/06/17 00:17:40;;;;;;;22.50;18.50;;;;;;;-145.50;100.00;65435.88;4920164;29;20507;-47
2021/06/17 00:20:07;;;;;;;25.17;20.00;;;;;;;-145.50;100.00;65435.88;4917207;29;20142;-46
2021/06/17 00:22:34;;;;;;;27.13;19.92;;;;;;;-145.50;100.00;65435.88;4922300;29;20166;-48
2021/06/17 00:25:00;;;;;;;23.80;19.48;;;;;;;-145.50;100.00;65435.88;4913631;29;20171;-46
2021/06/17 00:27:27;;;;;;;26.05;20.88;;;;;;;-145.50;100.00;65435.88;4918954;29;20139;-48
2021/06/17 00:29:53;;;;;;;23.95;20.52;;;;;;;-145.50;100.00;65435.88;4914348;29;20142;-46
2021/06/17 00:32:20;;;;;;;24.67;20.55;;;;;;;-145.50;100.00;65435.88;4914116;29;20142;-46
2021/06/17 00:34:46;;;;;;;27.70;20.95;;;;;;;-145.50;100.00;65435.88;4925579;29;20159;-49
2021/06/17 00:37:13;;;;;;;29.90;21.40;;;;;;;-145.50;100.00;65435.88;4913072;29;20075;-48
2021/06/17 00:39:40;;;;;;;24.60;20.63;;;;;;;-145.50;100.00;65435.88;4912868;29;20153;-47
2021/06/17 00:42:07;;;;;;;25.60;19.65;;;;;;;-145.50;100.00;65435.88;4911094;29;20142;-48
2021/06/17 00:44:34;;;;;;;26.13;20.75;;;;;;;-145.50;100.00;65435.88;4917648;29;20056;-47
2021/06/17 00:47:00;;;;;;;24.00;20.60;;;;;;;-145.50;100.00;65435.88;4920231;29;20445;-46
2021/06/17 00:49:27;;;;;;;24.60;20.55;;;;;;;-145.50;100.00;65435.88;4925529;29;20138;-49
2021/06/17 00:51:53;;;;;;;25.70;20.88;;;;;;;-145.50;100.00;65435.88;4907467;29;20146;-48
2021/06/17 00:54:32;;;;;;;23.17;19.85;;;;;;;-145.50;100.00;65435.88;4914271;29;20138;-48
2021/06/17 00:57:08;;;;;;;22.35;19.30;;;;;;;-145.50;100.00;65435.88;4920849;29;20091;-46
2021/06/17 00:59:36;;;;;;;28.02;19.27;;;;;;;-145.50;100.00;65435.88;4919463;29;20055;-47
2021/06/17 01:02:04;;;;;;;28.58;19.77;;;;;;;-145.50;100.00;65435.88;4925597;29;20480;-47
2021/06/17 01:04:31;;;;;;;27.70;19.98;;;;;;;-145.50;100.00;65435.88;4914970;29;20064;-48
2021/06/17 01:06:58;;;;;;;27.77;19.50;;;;;;;-145.50;100.00;65435.88;4919269;29;20553;-46
2021/06/17 01:09:47;;;;;;;24.27;18.40;;;;;;;-145.50;100.00;65435.88;4917569;29;20146;-46
2021/06/17 01:12:49;;;;;;;20.98;18.20;;;;;;;-145.50;100.00;65435.88;4919061;29;20057;-47
2021/06/17 01:15:20;;;;;;;24.75;18.77;;;;;;;-145.50;100.00;65435.88;4920315;29;20142;-46
2021/06/17 01:18:14;;;;;;;20.27;18.05;;;;;;;-145.50;100.00;65435.88;4924650;29;20147;-46
2021/06/17 01:20:55;;;;;;;25.23;19.77;;;;;;;-145.50;100.00;65435.88;4909942;29;20476;-46
2021/06/17 01:23:49;;;;;;;26.52;19.98;;;;;;;-145.50;100.00;65435.88;4921032;29;20146;-47
2021/06/17 01:26:43;;;;;;;25.90;17.55;;;;;;;-145.50;100.00;65435.88;4917517;29;20147;-47
2021/06/17 01:29:17;;;;;;;23.67;18.35;;;;;;;-145.50;100.00;65435.88;4918561;29;20861;-48
2021/06/17 01:31:44;;;;;;;25.85;18.05;;;;;;;-145.50;100.00;65435.88;4922603;29;20146;-46
2021/06/17 01:34:12;;;;;;;27.17;19.83;;;;;;;-145.50;100.00;65435.88;4925365;29;20163;-46
2021/06/17 01:36:42;;;;;;;24.73;19.40;;;;;;;-145.50;100.00;65435.88;4919513;29;20261;-48
2021/06/17 01:39:11;;;;;;;26.17;19.50;;;;;;;-145.50;100.00;65435.88;4929270;29;20079;-46
2021/06/17 01:41:41;;;;;;;25.85;19.85;;;;;;;-145.50;100.00;65435.88;4928420;29;20559;-46
2021/06/17 01:44:09;;;;;;;26.92;21.27;;;;;;;-145.50;100.00;65435.88;4914757;29;20114;-48
2021/06/17 01:46:38;;;;;;;29.08;21.00;;;;;;;-145.50;100.00;65435.88;4910180;29;20874;-45
2021/06/17 01:49:06;;;;;;;22.80;20.40;;;;;;;-145.50;100.00;65435.88;4907707;29;20060;-46
2021/06/17 01:51:33;;;;;;;25.98;21.10;;;;;;;-145.50;100.00;65435.88;4923998;29;20138;-45
2021/06/17 01:54:01;;;;;;;26.93;21.60;;;;;;;-145.50;100.00;65435.88;4911983;29;20138;-49
2021/06/17 01:56:28;;;;;;;27.80;22.27;;;;;;;-145.50;100.00;65435.88;4929185;29;20167;-46
2021/06/17 01:58:59;;;;;;;29.70;21.75;;;;;;;-145.50;100.00;65435.88;4924398;29;20143;-46
2021/06/17 02:01:31;;;;;;;29.70;22.20;;;;;;;-145.50;100.00;65435.88;4917998;29;20142;-46
2021/06/17 02:04:00;;;;;;;27.63;21.73;;;;;;;-145.50;100.00;65435.88;4920821;29;20062;-46
2021/06/17 02:06:27;;;;;;;29.20;21.38;;;;;;;-145.50;100.00;65435.88;4909980;29;20087;-46
2021/06/17 02:08:56;;;;;;;27.15;21.15;;;;;;;-145.50;100.00;65435.88;4929207;29;20130;-48
2021/06/17 02:11:25;;;;;;;27.00;22.27;;;;;;;-145.50;100.00;65435.88;4916321;29;20163;-46
2021/06/17 02:13:53;;;;;;;24.40;20.90;;;;;;;-145.50;100.00;65435.88;4902827;29;20135;-46
2021/06/17 02:16:21;;;;;;;26.02;22.02;;;;;;;-145.50;100.00;65435.88;4908938;28;20087;-46
2021/06/17 02:18:50;;;;;;;28.35;21.08;;;;;;;-145.50;100.00;65435.88;4926336;29;20522;-48
2021/06/17 02:21:17;;;;;;;29.50;21.48;;;;;;;-145.50;100.00;65435.88;4928723;29;20473;-47
2021/06/17 02:23:50;;;;;;;27.25;22.38;;;;;;;-145.50;100.00;65435.88;4921341;29;20094;-46
2021/06/17 02:26:18;;;;;;;28.15;21.20;;;;;;;-145.50;100.00;65435.88;4918735;29;20167;-48
2021/06/17 02:28:47;;;;;;;29.88;21.67;;;;;;;-145.50;100.00;65435.88;4908365;29;20951;-50
2021/06/17 02:31:18;;;;;;;30.40;22.83;;;;;;;-145.50;100.00;65435.88;4926238;29;20134;-48
2021/06/17 02:33:49;;;;;;;29.60;23.38;;;;;;;-145.50;100.00;65435.88;4915472;29;20499;-51
2021/06/17 02:36:22;;;;;;;27.98;22.92;;;;;;;-145.50;100.00;65435.88;4926487;29;20482;-45
2021/06/17 02:38:51;;;;;;;29.30;22.52;;;;;;;-145.50;100.00;65435.88;4919255;28;20532;-51
2021/06/17 02:41:19;;;;;;;27.20;23.40;;;;;;;-145.50;100.00;65435.88;4924497;29;20555;-47
2021/06/17 02:43:47;;;;;;;25.58;22.27;;;;;;;-145.50;100.00;65435.88;4921436;29;20094;-45
2021/06/17 02:46:17;;;;;;;31.60;21.02;;;;;;;-145.50;100.00;65435.88;4928069;29;20113;-46
2021/06/17 02:48:43;;;;;;;25.40;22.27;;;;;;;-145.50;100.00;65435.88;4926650;29;20058;-45
2021/06/17 02:51:10;;;;;;;30.35;22.13;;;;;;;-145.50;100.00;65435.88;4922174;29;20491;-48
2021/06/17 02:53:36;;;;;;;28.73;24.08;;;;;;;-145.50;100.00;65435.88;4923441;29;20146;-47
2021/06/17 02:56:11;;;;;;;27.42;23.05;;;;;;;-145.50;100.00;65435.88;4918190;28;20463;-46
2021/06/17 02:58:52;;;;;;;26.90;22.25;;;;;;;-145.50;100.00;65435.88;4927935;29;20511;-45
2021/06/17 03:01:27;;;;;;;28.08;24.35;;;;;;;-145.50;100.00;65435.88;4921953;29;20487;-49
2021/06/17 03:04:03;;;;;;;29.60;24.23;;;;;;;-145.50;100.00;65435.88;4926291;29;20055;-46
2021/06/17 03:06:39;;;;;;;30.88;25.23;;;;;;;-145.50;100.00;65435.88;4908447;29;20090;-46
2021/06/17 03:09:19;;;;;;;33.35;26.65;;;;;;;-145.50;100.00;65435.88;4923105;29;20575;-46
2021/06/17 03:11:48;;;;;;;31.17;26.80;;;;;;;-145.50;100.00;65435.88;4921915;29;20079;-46
2021/06/17 03:14:28;;;;;;;33.97;27.65;;;;;;;-145.50;100.00;65435.88;4927274;29;20567;-47
2021/06/17 03:16:57;;;;;;;34.30;27.52;;;;;;;-145.50;100.00;65435.88;4910943;29;20052;-45
2021/06/17 03:19:26;;;;;;;31.95;25.42;;;;;;;-145.50;100.00;65435.88;4920329;29;20526;-47
2021/06/17 03:21:59;;;;;;;37.75;27.00;;;;;;;-145.50;100.00;65435.88;4923198;29;20075;-46
2021/06/17 03:24:28;;;;;;;32.92;26.40;;;;;;;-145.50;100.00;65435.88;4916758;29;20259;-46
2021/06/17 03:26:58;;;;;;;31.52;27.50;;;;;;;-145.50;100.00;65435.88;4927789;29;20562;-46
2021/06/17 03:29:32;;;;;;;35.00;27.40;;;;;;;-145.50;100.00;65435.88;4921261;29;20083;-46
2021/06/17 03:32:00;;;;;;;33.78;27.13;;;;;;;-145.50;100.00;65435.88;4926974;29;20186;-48
2021/06/17 03:34:28;;;;;;;34.28;28.83;;;;;;;-145.50;100.00;65435.88;4919747;29;20062;-45
2021/06/17 03:36:58;;;;;;;40.58;30.15;;;;;;;-145.50;100.00;65435.88;4921147;29;20467;-46
2021/06/17 03:39:25;;;;;;;37.63;29.95;;;;;;;-145.50;100.00;65435.88;4926974;29;20062;-46
2021/06/17 03:41:53;;;;;;;37.40;28.83;;;;;;;-145.50;100.00;65435.88;4903635;29;20552;-47
2021/06/17 03:44:21;;;;;;;38.15;30.42;;;;;;;-145.50;100.00;65435.88;4927052;29;20492;-49
2021/06/17 03:46:49;;;;;;;36.33;29.43;;;;;;;-145.50;100.00;65435.88;4921831;29;20151;-47
2021/06/17 03:49:17;;;;;;;;;;;;;;;-145.50;100.00;65435.88;4924014;29;20077;-46
2021/06/17 03:51:44;;;;;;;31.40;27.92;;;;;;;-145.50;100.00;65435.88;4915997;29;20262;-45
2021/06/17 03:54:23;;;;;;;35.70;30.65;;;;;;;-145.50;100.00;65435.88;4926833;29;20094;-47
2021/06/17 03:56:55;;;;;;;39.78;30.25;;;;;;;-145.50;100.00;65435.88;4920954;29;20087;-44
2021/06/17 03:59:24;;;;;;;37.28;31.02;;;;;;;-145.50;100.00;65435.88;4925981;29;20119;-45
2021/06/17 04:01:51;;;;;;;36.80;31.38;;;;;;;-145.50;100.00;65435.88;4923890;29;20135;-46
2021/06/17 04:04:19;;;;;;;35.65;28.52;;;;;;;-145.50;100.00;65435.88;4915770;29;20435;-45
2021/06/17 04:06:59;;;;;;;36.28;29.50;;;;;;;-145.50;100.00;65435.88;4925739;29;20060;-44
2021/06/17 04:09:29;;;;;;;40.03;31.17;;;;;;;-145.50;100.00;65435.88;4920757;29;20063;-44
2021/06/17 04:12:07;;;;;;;39.25;30.60;;;;;;;-145.50;100.00;65435.88;4926189;29;20130;-44
2021/06/17 04:14:36;;;;;;;39.58;32.38;;;;;;;-145.50;100.00;65435.88;4920421;29;20059;-45
2021/06/17 04:17:04;;;;;;;41.15;32.17;;;;;;;-145.50;100.00;65435.88;4922229;29;20155;-44
2021/06/17 04:19:33;;;;;;;39.75;30.15;;;;;;;-145.50;100.00;65435.88;4916291;29;20678;-45
2021/06/17 04:22:08;;;;;;;38.22;31.02;;;;;;;-145.50;100.00;65435.88;4925651;29;20417;-44
2021/06/17 04:24:38;;;;;;;38.58;29.40;;;;;;;-145.50;100.00;65435.88;4919653;29;20139;-45
2021/06/17 04:27:06;;;;;;;44.08;33.38;;;;;;;-145.50;100.00;65435.88;4926025;29;20797;-45
2021/06/17 04:29:38;;;;;;;40.53;33.80;;;;;;;-145.50;100.00;65435.88;4922281;29;20087;-44
2021/06/17 04:32:07;;;;;;;38.00;33.70;;;;;;;-145.50;100.00;65435.88;4915403;29;20623;-45
2021/06/17 04:34:35;;;;;;;44.42;33.35;;;;;;;-145.50;100.00;65435.88;4925572;29;20142;-45
2021/06/17 04:37:03;;;;;;;;;;;;;;;-145.50;100.00;65435.88;4908331;29;20143;-44
2021/06/17 04:39:30;;;;;;;41.65;34.30;;;;;;;-145.50;100.00;65435.88;4925119;29;19962;-46
2021/06/17 04:41:57;;;;;;;43.60;32.92;;;;;;;-145.50;100.00;65435.88;4919535;29;20848;-45
2021/06/17 04:44:24;;;;;;;41.22;32.95;;;;;;;-145.50;100.00;65435.88;4922290;29;20067;-45
2021/06/17 04:46:52;;;;;;;40.22;32.88;;;;;;;-145.50;100.00;65435.88;4916446;29;20527;-46
2021/06/17 04:49:21;;;;;;;39.63;32.00;;;;;;;-145.50;100.00;65435.88;4925711;29;20058;-47
2021/06/17 04:51:48;;;;;;;34.33;30.23;;;;;;;-145.50;100.00;65435.88;4924919;29;20110;-44
2021/06/17 04:54:21;;;;;;;40.77;32.00;;;;;;;-145.50;100.00;65435.88;4919914;29;20158;-44
2021/06/17 04:56:48;;;;;;;35.13;30.63;;;;;;;-145.50;100.00;65435.88;4923524;29;20146;-45
2021/06/17 04:59:15;;;;;;;37.43;30.20;;;;;;;-145.50;100.00;65435.88;4912137;29;20075;-44
2021/06/17 05:01:42;;;;;;;37.65;31.30;;;;;;;-145.50;100.00;65435.88;4921108;29;20086;-44
2021/06/17 05:04:10;;;;;;;37.35;30.60;;;;;;;-145.50;100.00;65435.88;4919144;29;20079;-44
2021/06/17 05:06:39;;;;;;;35.22;29.33;;;;;;;-145.50;100.00;65435.88;4925842;29;20453;-45
2021/06/17 05:11:52;;;;;;;36.70;27.27;;;;;;;-145.50;100.00;65435.88;4915180;29;20154;-45
2021/06/17 05:14:22;;;;;;;41.30;28.87;;;;;;;-145.50;100.00;65435.88;4906268;29;20071;-50
2021/06/17 05:16:48;;;;;;;33.45;28.02;;;;;;;-145.50;100.00;65435.88;4904228;29;20370;-45
2021/06/17 05:19:16;;;;;;;40.40;29.33;;;;;;;-145.50;100.00;65435.88;4919254;29;20146;-45
2021/06/17 05:21:43;;;;;;;39.67;29.48;;;;;;;-145.50;100.00;65435.88;4913721;29;20535;-46
2021/06/17 05:24:10;;;;;;;37.00;29.30;;;;;;;-145.50;100.00;65435.88;4925243;29;20175;-46
2021/06/17 05:26:37;;;;;;;36.67;28.27;;;;;;;-145.50;100.00;65435.88;4913500;29;20436;-46
2021/06/17 05:29:04;;;;;;;36.45;27.35;;;;;;;-145.50;100.00;65435.88;4925208;29;20166;-45
2021/06/17 05:31:31;;;;;;;39.78;26.23;;;;;;;-145.50;100.00;65435.88;4925320;29;20151;-45
2021/06/17 05:33:57;;;;;;;43.28;27.77;;;;;;;-145.50;100.00;65435.88;4919249;29;20196;-48
2021/06/17 05:36:24;;;;;;;36.03;23.58;;;;;;;-145.50;100.00;65435.88;4925555;29;20074;-46
2021/06/17 05:38:51;;;;;;;36.33;25.05;;;;;;;-145.50;100.00;65435.88;4916821;29;20155;-50
2021/06/17 05:41:18;;;;;;;37.07;25.77;;;;;;;-145.50;100.00;65435.88;4915026;29;20417;-45
2021/06/17 05:43:45;;;;;;;35.22;23.63;;;;;;;-145.50;100.00;65435.88;4912674;29;20138;-45
2021/06/17 05:46:11;;;;;;;34.70;24.10;;;;;;;-145.50;100.00;65435.88;4925531;29;20087;-45
2021/06/17 05:48:38;;;;;;;36.15;22.88;;;;;;;-145.50;100.00;65435.88;4919751;29;20070;-45
2021/06/17 05:51:05;;;;;;;34.58;27.02;;;;;;;-145.50;100.00;65435.88;4925514;29;20150;-47
2021/06/17 05:53:31;;;;;;;37.63;23.00;;;;;;;-145.50;100.00;65435.88;4920327;29;20123;-45
2021/06/17 05:55:58;;;;;;;30.23;21.05;;;;;;;-145.50;100.00;65435.88;4914818;29;20151;-46
2021/06/17 05:58:25;;;;;;;31.90;21.30;;;;;;;-145.50;100.00;65435.88;4924236;29;20063;-46
2021/06/17 06:00:52;;;;;;;24.45;17.45;;;;;;;-145.50;100.00;65435.88;4917853;29;20841;-51
2021/06/17 06:03:18;;;;;;;28.52;19.05;;;;;;;-145.50;100.00;65435.88;4907269;29;20611;-45
2021/06/17 06:05:45;;;;;;;28.80;17.15;;;;;;;-145.50;100.00;65435.88;4914541;29;20476;-45
2021/06/17 06:08:12;;;;;;;31.00;18.23;;;;;;;-145.50;100.00;65435.88;4905505;29;20126;-46
2021/06/17 06:10:43;;;;;;;24.83;16.48;;;;;;;-145.50;100.00;65435.88;4922204;29;20465;-45
2021/06/17 06:13:10;;;;;;;26.95;16.83;;;;;;;-145.50;100.00;65435.88;4927258;29;20787;-46
2021/06/17 06:15:37;;;;;;;23.10;15.77;;;;;;;-145.50;100.00;65435.88;4923740;29;20415;-45
2021/06/17 06:18:11;;;;;;;21.95;15.75;;;;;;;-145.50;100.00;65435.88;4921313;29;20141;-46
2021/06/17 06:20:40;;;;;;;21.73;14.63;;;;;;;-145.50;100.00;65435.88;4912856;29;20142;-45
2021/06/17 06:23:07;;;;;;;25.13;16.73;;;;;;;-145.50;100.00;65435.88;4909890;29;20062;-49
2021/06/17 06:25:35;;;;;;;22.73;15.60;;;;;;;-145.50;100.00;65435.88;4909634;29;20135;-45
2021/06/17 06:28:03;;;;;;;21.40;15.48;;;;;;;-145.50;100.00;65435.88;4906217;29;20111;-47
2021/06/17 06:30:29;;;;;;;18.17;14.25;;;;;;;-145.50;100.00;65435.88;4921337;29;20142;-45
2021/06/17 06:32:56;;;;;;;20.38;14.68;;;;;;;-145.50;100.00;65435.88;4923095;29;21100;-45
2021/06/17 06:35:24;;;;;;;22.10;15.57;;;;;;;-145.50;100.00;65435.88;4899867;29;20147;-46
2021/06/17 06:37:51;;;;;;;18.98;13.57;;;;;;;-145.50;100.00;65435.88;4928000;29;20162;-45
2021/06/17 06:40:20;;;;;;;20.83;14.70;;;;;;;-145.50;100.00;65435.88;4916379;29;20090;-45
2021/06/17 06:42:47;;;;;;;21.25;13.43;;;;;;;-145.50;100.00;65435.88;4914433;29;20139;-47
2021/06/17 06:45:14;;;;;;;19.58;14.18;;;;;;;-145.50;100.00;65435.88;4913494;29;20115;-47
2021/06/17 06:47:41;;;;;;;17.02;13.23;;;;;;;-145.50;100.00;65435.88;4917643;29;20067;-49
2021/06/17 06:50:09;;;;;;;18.23;12.97;;;;;;;-145.50;100.00;65435.88;4918876;29;20146;-47
2021/06/17 06:52:36;;;;;;;;;;;;;;;-145.50;100.00;65435.88;4927175;29;20048;-46
2021/06/17 06:55:05;;;;;;;16.40;11.88;;;;;;;-145.50;100.00;65435.88;4921344;29;20018;-47
2021/06/17 06:57:31;;;;;;;13.82;10.60;;;;;;;-145.50;100.00;65435.88;4922076;29;20139;-47
2021/06/17 06:59:58;;;;;;;21.13;11.85;;;;;;;-145.50;100.00;65435.88;4928171;29;20578;-48
2021/06/17 07:02:25;;;;;;;15.60;10.90;;;;;;;-145.50;100.00;65435.88;4916671;29;20055;-48
2021/06/17 07:04:51;;;;;;;17.63;11.07;;;;;;;-145.50;100.00;65435.88;4924170;29;20074;-51
2021/06/17 07:07:18;;;;;;;16.20;12.23;;;;;;;-145.50;100.00;65435.88;4922051;29;20150;-49
2021/06/17 07:09:44;;;;;;;20.27;11.70;;;;;;;-145.50;100.00;65435.88;4928411;29;20138;-50
2021/06/17 07:12:11;;;;;;;18.23;11.65;;;;;;;-145.50;100.00;65435.88;4921597;29;20135;-48
2021/06/17 07:14:41;;;;;;;14.57;11.07;;;;;;;-145.50;100.00;65435.88;4926140;29;20055;-46
2021/06/17 07:17:08;;;;;;;16.65;11.27;;;;;;;-145.50;100.00;65435.88;4920166;29;20220;-47
2021/06/17 07:19:35;;;;;;;20.42;11.75;;;;;;;-145.50;100.00;65435.88;4911955;29;20063;-47
2021/06/17 07:22:01;;;;;;;16.25;11.50;;;;;;;-145.50;100.00;65435.88;4926738;28;20551;-47
2021/06/17 07:24:28;;;;;;;14.18;11.02;;;;;;;-145.50;100.00;65435.88;4886682;29;20134;-47
2021/06/17 07:26:54;;;;;;;16.33;10.68;;;;;;;-145.50;100.00;65435.88;4928251;29;20130;-47
2021/06/17 07:29:21;;;;;;;16.95;10.23;;;;;;;-145.50;100.00;65435.88;4917745;29;20146;-50
2021/06/17 07:31:48;;;;;;;17.33;10.93;;;;;;;-145.50;100.00;65435.88;4923626;29;20147;-49
2021/06/17 07:34:15;;;;;;;15.70;9.52;;;;;;;-145.50;100.00;65435.88;4921613;29;20555;-49
2021/06/17 07:36:43;;;;;;;20.17;12.32;;;;;;;-145.50;100.00;65435.88;4927031;29;20051;-47
2021/06/17 07:39:11;;;;;;;15.43;10.80;;;;;;;-145.50;100.00;65435.88;4927669;29;20060;-49
2021/06/17 07:41:38;;;;;;;18.83;11.00;;;;;;;-145.50;100.00;65435.88;4921128;29;20162;-49
2021/06/17 07:44:05;;;;;;;18.03;10.67;;;;;;;-145.50;100.00;65435.88;4921512;29;20183;-48
2021/06/17 07:46:32;;;;;;;19.35;10.35;;;;;;;-145.50;100.00;65435.88;4921003;29;20492;-48
2021/06/17 07:48:59;;;;;;;17.42;10.13;;;;;;;-145.50;100.00;65435.88;4909849;29;20146;-48
2021/06/17 07:51:26;;;;;;;14.35;10.20;;;;;;;-145.50;100.00;65435.88;4919979;29;20196;-47
2021/06/17 07:53:54;;;;;;;16.63;10.07;;;;;;;-145.50;100.00;65435.88;4926059;29;20437;-48
2021/06/17 07:56:21;;;;;;;;;;;;;;;-145.50;100.00;65435.88;4923785;29;20175;-48
2021/06/17 07:58:47;;;;;;;13.65;9.65;;;;;;;-145.50;100.00;65435.88;4917297;29;20021;-48
2021/06/17 08:01:14;;;;;;;13.65;10.40;;;;;;;-145.50;100.00;65435.88;4926760;29;20607;-48
2021/06/17 08:03:40;;;;;;;17.42;9.07;;;;;;;-145.50;100.00;65435.88;4919898;29;20063;-47
2021/06/17 08:06:07;;;;;;;10.80;8.73;;;;;;;-145.50;100.00;65435.88;4926899;29;20180;-47
2021/06/17 08:08:34;;;;;;;;;;;;;;;-145.50;100.00;65435.88;4903719;29;20146;-47
2021/06/17 08:11:01;;;;;;;17.15;9.38;;;;;;;-145.50;100.00;65435.88;4919980;29;19937;-49
2021/06/17 08:13:47;;;;;;;14.20;9.20;;;;;;;-145.50;100.00;65435.88;4919761;29;20061;-49
2021/06/17 08:16:14;;;;;;;14.68;9.15;;;;;;;-145.50;100.00;65435.88;4926920;29;20135;-47
2021/06/17 08:18:41;;;;;;;13.55;9.52;;;;;;;-145.50;100.00;65435.88;4922811;29;20094;-49
2021/06/17 08:21:07;;;;;;;12.18;8.90;;;;;;;-145.50;100.00;65435.88;4925309;29;20090;-48
2021/06/17 08:23:34;;;;;;;14.77;8.60;;;;;;;-145.50;100.00;65435.88;4921052;29;20062;-50
2021/06/17 08:26:00;;;;;;;13.18;9.38;;;;;;;-145.50;100.00;65435.88;4918339;29;20070;-47
2021/06/17 08:28:27;;;;;;;13.30;8.85;;;;;;;-145.50;100.00;65435.88;4926154;29;20130;-47
2021/06/17 08:30:54;;;;;;;12.27;9.40;;;;;;;-145.50;100.00;65435.88;4921120;29;20162;-48
2021/06/17 08:33:20;;;;;;;20.73;10.55;;;;;;;-145.50;100.00;65435.88;4925101;29;20052;-47
2021/06/17 08:35:51;;;;;;;16.50;9.52;;;;;;;-145.50;100.00;65435.88;4904038;29;20551;-48
2021/06/17 08:38:21;;;;;;;18.60;10.52;;;;;;;-145.50;100.00;65435.88;4922598;29;20482;-48
2021/06/17 08:40:48;;;;;;;20.58;10.02;;;;;;;-145.50;100.00;65435.88;4923648;29;20411;-49
2021/06/17 08:43:14;;;;;;;17.25;10.60;;;;;;;-145.50;100.00;65435.88;4919670;29;20144;-48
2021/06/17 08:45:41;;;;;;;12.95;8.88;;;;;;;-145.50;100.00;65435.88;4926884;29;20140;-48
2021/06/17 08:48:07;;;;;;;13.57;8.98;;;;;;;-145.50;100.00;65435.88;4921176;29;20555;-47
2021/06/17 08:50:35;;;;;;;14.88;8.63;;;;;;;-145.50;100.00;65435.88;4911181;29;20051;-53
2021/06/17 08:53:02;;;;;;;13.52;7.63;;;;;;;-145.50;100.00;65435.88;4914014;29;20821;-48
2021/06/17 08:55:30;;;;;;;11.23;7.70;;;;;;;-145.50;100.00;65435.88;4925119;29;20095;-49
2021/06/17 08:57:57;;;;;;;14.25;7.40;;;;;;;-145.50;100.00;65435.88;4921779;29;20369;-49
2021/06/17 09:00:32;;;;;;;16.60;8.73;;;;;;;-145.50;100.00;65435.88;4908900;29;20087;-47
2021/06/17 09:03:04;;;;;;;17.48;8.35;;;;;;;-145.50;100.00;65435.88;4912362;29;20135;-48
2021/06/17 09:05:34;;;;;;;13.27;7.50;;;;;;;-145.50;100.00;65435.88;4916806;29;20083;-52
2021/06/17 09:08:01;;;;;;;13.70;8.20;;;;;;;-145.50;100.00;65435.88;4922161;29;20055;-48
2021/06/17 09:10:28;;;;;;;15.43;8.55;;;;;;;-145.50;100.00;65435.88;4919208;29;20756;-50
2021/06/17 09:12:58;;;;;;;18.48;8.50;;;;;;;-145.50;100.00;65435.88;4925919;29;20093;-48
2021/06/17 09:15:37;;;;;;;19.45;8.63;;;;;;;-145.50;100.00;65435.88;4919703;29;20146;-50
2021/06/17 09:18:20;;;;;;;16.85;7.88;;;;;;;-145.50;100.00;65435.88;4926157;29;20069;-48
2021/06/17 09:21:11;;;;;;;14.70;8.13;;;;;;;-145.50;100.00;65435.88;4909844;29;20099;-50
2021/06/17 09:23:43;;;;;;;10.48;8.20;;;;;;;-145.50;100.00;65435.88;4925254;29;20134;-48
2021/06/17 09:26:17;;;;;;;15.60;7.93;;;;;;;-145.50;100.00;65435.88;4913045;29;20134;-48
2021/06/17 09:29:08;;;;;;;11.80;8.18;;;;;;;-145.50;100.00;65435.88;4926358;29;20091;-48
2021/06/17 09:31:41;;;;;;;12.10;7.55;;;;;;;-145.50;100.00;65435.88;4918224;29;20170;-49
2021/06/17 09:34:10;;;;;;;13.23;7.88;;;;;;;-145.50;100.00;65435.88;4921568;29;20126;-48
2021/06/17 09:36:39;;;;;;;11.20;8.77;;;;;;;-145.50;100.00;65435.88;4925203;29;20138;-48
2021/06/17 09:39:09;;;;;;;12.68;7.30;;;;;;;-145.50;100.00;65435.88;4920034;29;20102;-47
2021/06/17 09:41:46;;;;;;;16.05;7.18;;;;;;;-145.50;100.00;65435.88;4924549;29;20156;-46
2021/06/17 09:44:40;;;;;;;13.50;7.03;;;;;;;-145.50;100.00;65435.88;4920163;29;20055;-50
2021/06/17 09:47:22;;;;;;;12.95;7.68;;;;;;;-145.50;100.00;65435.88;4923649;29;20087;-46
2021/06/17 09:49:49;;;;;;;11.70;7.00;;;;;;;-145.50;100.00;65435.88;4923478;29;20066;-51
2021/06/17 09:52:16;;;;;;;;;;;;;;;-145.50;100.00;65435.88;4928619;29;20167;-50
2021/06/17 09:54:43;;;;;;;13.25;8.30;;;;;;;-145.50;100.00;65435.88;4923016;29;20029;-49
2021/06/17 09:57:20;;;;;;;11.90;6.90;;;;;;;-145.50;100.00;65435.88;4928467;29;20059;-48
2021/06/17 09:59:51;;;;;;;13.60;7.85;;;;;;;-145.50;100.00;65435.88;4919341;29;20159;-47
2021/06/17 10:02:23;;;;;;;11.63;8.57;;;;;;;-145.50;100.00;65435.88;4924538;29;20573;-47
2021/06/17 10:04:51;;;;;;;13.05;8.73;;;;;;;-145.50;100.00;65435.88;4926684;29;20091;-49
2021/06/17 10:07:19;;;;;;;18.52;8.27;;;;;;;-145.50;100.00;65435.88;4927033;29;20059;-47
2021/06/17 10:09:46;;;;;;;11.48;8.55;;;;;;;-145.50;100.00;65435.88;4929318;29;20578;-48
2021/06/17 10:12:13;;;;;;;12.65;8.57;;;;;;;-145.50;100.00;65435.88;4922062;29;20066;-47
2021/06/17 10:14:40;;;;;;;16.63;9.05;;;;;;;-145.50;100.00;65435.88;4921863;29;20055;-50
2021/06/17 10:17:07;;;;;;;16.50;8.35;;;;;;;-145.50;100.00;65435.88;4903535;29;20163;-49
2021/06/17 10:19:35;;;;;;;13.02;9.15;;;;;;;-145.50;100.00;65435.88;4928625;29;20812;-47
2021/06/17 10:22:02;;;;;;;18.83;9.45;;;;;;;-145.50;100.00;65435.88;4922143;29;20788;-49
2021/06/17 10:24:30;;;;;;;11.82;8.80;;;;;;;-145.50;100.00;65435.88;4928063;29;20555;-49
2021/06/17 10:27:05;;;;;;;12.98;8.77;;;;;;;-145.50;100.00;65435.88;4927809;29;20083;-51
2021/06/17 10:29:36;;;;;;;13.75;8.52;;;;;;;-145.50;100.00;65435.88;4921467;28;20547;-50
2021/06/17 10:32:05;;;;;;;13.20;9.07;;;;;;;-145.50;100.00;65435.88;4928187;29;20756;-50
2021/06/17 10:34:35;;;;;;;14.95;8.82;;;;;;;-145.50;100.00;65435.88;4922848;29;20066;-48
2021/06/17 10:37:04;;;;;;;10.93;8.57;;;;;;;-145.50;100.00;65435.88;4927368;29;20056;-47
2021/06/17 10:39:48;;;;;;;15.73;8.95;;;;;;;-145.50;100.00;65435.88;4918811;29;20064;-49
2021/06/17 10:42:25;;;;;;;17.95;9.27;;;;;;;-145.50;100.00;65435.88;4916134;29;20119;-48
2021/06/17 10:45:02;;;;;;;15.98;10.48;;;;;;;-145.50;100.00;65435.88;4923031;29;20174;-50
2021/06/17 10:47:38;;;;;;;;;;;;;;;-145.50;100.00;65435.88;4928518;29;20056;-51
2021/06/17 10:50:09;;;;;;;15.33;9.50;;;;;;;-145.50;100.00;65435.88;4921211;29;19985;-47
2021/06/17 10:52:38;;;;;;;15.27;9.23;;;;;;;-145.50;100.00;65435.88;4925197;29;20138;-49
2021/06/17 10:55:07;;;;;;;16.65;9.57;;;;;;;-145.50;100.00;65435.88;4923977;29;20094;-52
2021/06/17 10:57:48;;;;;;;13.85;8.68;;;;;;;-145.50;100.00;65435.88;4927625;29;20823;-48
2021/06/17 11:00:21;;;;;;;18.50;10.40;;;;;;;-145.50;100.00;65435.88;4929096;29;20098;-50
2021/06/17 11:02:52;;;;;;;23.92;10.68;;;;;;;-145.50;100.00;65435.88;4919887;29;20054;-50
2021/06/17 11:05:31;;;;;;;16.13;11.02;;;;;;;-145.50;100.00;65435.88;4921925;29;20159;-49
2021/06/17 11:08:13;;;;;;;15.13;10.00;;;;;;;-145.50;100.00;65435.88;4922129;29;20146;-49
2021/06/17 11:10:57;;;;;;;19.20;10.25;;;;;;;-145.50;100.00;65435.88;4927821;29;20086;-51